Time;durP1;ratioP1;P1;durP2;ratioP2;P2;SDS_P1;SDS_P2;PMS_P1;PMS_P2;Temp;Humidity;BMP_temperature;BMP_pressure;BME280_temperature;BME280_humidity;BME280_pressure;Samples;Min_cycle;Max_cycle;Signal;HPM_P1;HPM_P2
2023/05/13 00:00:11;;;;;;;9.40;7.10;;;;;;;17.07;93.84;101889.00;5291320;28;20078;-81
2023/05/13 00:02:42;;;;;;;8.00;7.07;;;;;;;17.14;94.84;101887.66;5291855;28;20028;-79
2023/05/13 00:05:14;;;;;;;9.77;6.50;;;;;;;17.28;90.68;101909.63;5290154;28;20026;-80
2023/05/13 00:07:45;;;;;;;7.07;6.37;;;;;;;17.30;91.10;101923.59;5292778;28;20031;-78
2023/05/13 00:10:19;;;;;;;10.50;8.33;;;;;;;17.07;95.17;101886.34;5290938;28;20024;-77
2023/05/13 00:12:50;;;;;;;6.63;5.93;;;;;;;17.28;90.69;101914.91;5278567;28;20044;-78
2023/05/13 00:15:21;;;;;;;8.53;7.30;;;;;;;17.17;89.20;101905.94;5283260;28;20028;-79
2023/05/13 00:17:52;;;;;;;12.27;6.70;;;;;;;17.21;91.71;101908.41;5300681;28;20157;-79
2023/05/13 00:20:24;;;;;;;7.73;6.13;;;;;;;17.08;90.89;101874.84;5300468;28;20107;-78
2023/05/13 00:22:55;;;;;;;8.60;6.53;;;;;;;16.78;90.67;101854.88;5300555;28;20020;-78
2023/05/13 00:25:34;;;;;;;6.80;6.10;;;;;;;16.93;89.63;101869.66;5299121;28;20530;-79
2023/05/13 00:28:57;;;;;;;7.87;6.57;;;;;;;17.23;88.59;101862.31;5300398;28;20097;-79
2023/05/13 00:31:29;;;;;;;7.87;6.20;;;;;;;16.83;89.14;101873.91;5300189;28;20068;-78
2023/05/13 00:34:01;;;;;;;8.63;6.87;;;;;;;17.04;88.63;101907.75;5291603;28;20024;-79
2023/05/13 00:36:33;;;;;;;9.30;7.30;;;;;;;16.78;88.20;101881.31;5291008;28;20028;-79
2023/05/13 00:39:04;;;;;;;8.83;6.40;;;;;;;16.83;90.36;101879.22;5294673;28;20482;-79
2023/05/13 00:41:36;;;;;;;8.80;6.83;;;;;;;16.89;90.61;101884.09;5278393;28;20024;-79
2023/05/13 00:44:07;;;;;;;7.57;6.10;;;;;;;16.92;90.19;101880.34;5286282;28;20057;-79
2023/05/13 00:46:39;;;;;;;8.27;6.63;;;;;;;16.98;89.75;101908.19;5287796;28;20028;-78
2023/05/13 00:49:10;;;;;;;6.60;6.00;;;;;;;17.05;89.80;101888.28;5290276;28;20028;-79
2023/05/13 00:51:41;;;;;;;9.70;6.83;;;;;;;17.01;89.78;101900.03;5283739;28;20040;-79
2023/05/13 00:54:13;;;;;;;7.13;6.43;;;;;;;16.85;88.94;101893.19;5298559;28;20020;-79
2023/05/13 00:56:44;;;;;;;8.60;6.13;;;;;;;16.80;89.48;101884.72;5296799;28;20476;-79
2023/05/13 00:59:15;;;;;;;10.17;6.07;;;;;;;16.71;90.50;101895.94;5282464;28;20028;-79
2023/05/13 01:02:13;;;;;;;9.77;6.87;;;;;;;16.93;88.33;101882.06;5290823;28;20035;-79
2023/05/13 01:04:56;;;;;;;6.13;5.43;;;;;;;16.93;90.10;101917.28;5278613;28;20028;-79
2023/05/13 01:07:42;;;;;;;10.50;6.60;;;;;;;16.96;90.30;101920.69;5295844;28;20107;-79
2023/05/13 01:10:25;;;;;;;9.83;6.20;;;;;;;16.69;90.36;101896.91;5298344;28;20055;-79
2023/05/13 01:13:02;;;;;;;9.80;6.60;;;;;;;16.76;86.96;101896.44;5298852;28;20381;-79
2023/05/13 01:15:44;;;;;;;11.87;7.13;;;;;;;16.56;89.38;101866.97;5299393;28;20027;-79
2023/05/13 01:18:23;;;;;;;8.00;6.33;;;;;;;16.75;90.05;101902.72;5291932;28;20020;-79
2023/05/13 01:20:55;;;;;;;8.23;6.27;;;;;;;16.29;89.30;101876.69;5278770;28;20482;-79
2023/05/13 01:23:27;;;;;;;7.30;6.23;;;;;;;16.29;89.00;101873.19;5278353;28;20025;-79
2023/05/13 01:25:58;;;;;;;10.57;6.00;;;;;;;16.38;90.24;101875.22;5276831;28;20028;-79
2023/05/13 01:28:29;;;;;;;8.00;5.80;;;;;;;16.39;89.08;101878.72;5278282;28;20020;-79
2023/05/13 01:31:01;;;;;;;7.13;6.43;;;;;;;16.17;90.37;101878.38;5278212;28;20230;-79
2023/05/13 01:33:32;;;;;;;8.23;5.93;;;;;;;16.39;89.26;101886.66;5278513;28;20032;-81
2023/05/13 01:36:05;;;;;;;7.63;6.60;;;;;;;16.26;88.98;101889.25;5278731;28;20494;-81
2023/05/13 01:38:38;;;;;;;8.80;6.17;;;;;;;16.39;86.95;101902.50;5277110;28;20020;-81
2023/05/13 01:42:11;;;;;;;;;;;;;;;;;;;;;
2023/05/13 01:45:01;;;;;;;8.63;6.20;;;;;;;16.27;88.55;101906.78;5257780;28;20368;-80
2023/05/13 01:47:35;;;;;;;7.93;6.10;;;;;;;16.23;88.49;101894.75;5276292;28;20387;-81
2023/05/13 01:50:07;;;;;;;14.80;6.53;;;;;;;15.92;86.54;101858.84;5271998;28;20035;-81
2023/05/13 01:52:44;;;;;;;8.53;6.03;;;;;;;16.26;88.37;101868.97;5276714;28;20037;-81
2023/05/13 01:55:20;;;;;;;7.50;6.70;;;;;;;16.25;86.03;101890.22;5276472;28;20027;-81
2023/05/13 01:57:59;;;;;;;7.87;6.80;;;;;;;15.96;84.56;101876.19;5276698;28;20040;-79
2023/05/13 02:00:50;;;;;;;5.87;5.30;;;;;;;16.37;86.17;101883.25;5292971;28;20035;-80
2023/05/13 02:03:21;;;;;;;6.30;5.70;;;;;;;16.32;84.96;101880.91;5276614;28;20024;-80
2023/05/13 02:05:52;;;;;;;8.93;6.33;;;;;;;16.32;84.77;101889.69;5277971;28;20047;-80
2023/05/13 02:08:27;;;;;;;6.57;5.87;;;;;;;15.76;86.27;101863.44;5277006;28;20025;-82
2023/05/13 02:11:01;;;;;;;9.10;5.70;;;;;;;15.77;88.88;101875.69;5275853;28;20361;-82
2023/05/13 02:13:35;;;;;;;8.60;6.10;;;;;;;15.87;88.30;101879.41;5276689;28;20135;-81
2023/05/13 02:16:06;;;;;;;7.28;6.10;;;;;;;15.90;87.18;101871.28;5278336;28;20032;-82
2023/05/13 02:18:38;;;;;;;9.30;6.50;;;;;;;15.94;86.99;101896.56;5277630;28;20032;-81
2023/05/13 02:21:09;;;;;;;9.20;6.57;;;;;;;15.72;88.13;101863.66;5278428;28;20074;-81
2023/05/13 02:23:40;;;;;;;9.60;6.63;;;;;;;15.73;89.91;101891.75;5277696;28;20071;-80
2023/05/13 02:26:12;;;;;;;8.67;6.13;;;;;;;15.45;89.79;101872.41;5275731;28;20028;-81
2023/05/13 02:28:43;;;;;;;8.37;6.77;;;;;;;15.43;90.22;101884.03;5277748;28;20498;-81
2023/05/13 02:31:15;;;;;;;12.17;6.37;;;;;;;15.60;90.37;101888.22;5277620;28;20058;-80
2023/05/13 02:33:46;;;;;;;8.70;6.23;;;;;;;15.50;89.27;101868.66;5277965;28;20383;-80
2023/05/13 02:36:17;;;;;;;10.00;6.70;;;;;;;15.41;89.61;101881.47;5277935;28;20117;-80
2023/05/13 02:38:49;;;;;;;9.40;6.60;;;;;;;15.49;90.29;101894.19;5281543;28;20035;-80
2023/05/13 02:41:20;;;;;;;7.50;6.27;;;;;;;15.46;90.85;101900.50;5279735;28;20119;-80
2023/05/13 02:43:51;;;;;;;10.90;6.50;;;;;;;14.98;91.01;101871.84;5281340;28;20452;-80
2023/05/13 02:46:23;;;;;;;8.10;6.60;;;;;;;15.47;89.46;101872.31;5281899;28;20031;-80
2023/05/13 02:48:58;;;;;;;11.93;6.83;;;;;;;15.07;91.46;101852.81;5281257;28;20484;-81
2023/05/13 02:52:06;;;;;;;;;;;;;;;;;;;;;
2023/05/13 02:55:22;;;;;;;7.63;6.73;;;;;;;15.45;90.15;101856.56;5280512;28;20038;-81
2023/05/13 03:02:05;;;;;;;8.93;6.23;;;;;;;15.23;89.96;101847.41;5281514;28;20059;-81
2023/05/13 03:11:26;;;;;;;11.23;6.70;;;;;;;14.86;90.21;101849.72;5280523;28;20043;-81
2023/05/13 03:14:07;;;;;;;7.20;6.50;;;;;;;14.75;91.74;101840.66;5280566;28;20512;-81
2023/05/13 03:16:41;;;;;;;9.63;7.90;;;;;;;14.70;92.35;101862.97;5279402;28;20123;-80
2023/05/13 03:19:12;;;;;;;10.13;6.75;;;;;;;14.55;93.18;101875.28;5279942;28;20028;-80
2023/05/13 03:21:44;;;;;;;10.33;7.17;;;;;;;14.65;92.65;101881.69;5279537;28;20024;-80
2023/05/13 03:24:15;;;;;;;8.37;6.87;;;;;;;14.74;93.63;101912.81;5279477;28;20476;-80
2023/05/13 03:27:27;;;;;;;12.37;7.47;;;;;;;14.92;90.96;101862.53;5278870;28;20024;-80
2023/05/13 03:31:06;;;;;;;9.77;6.93;;;;;;;14.92;91.80;101865.19;5293119;28;20034;-80
2023/05/13 03:37:29;;;;;;;8.87;7.63;;;;;;;14.75;90.33;101896.03;5256289;28;20033;-80
2023/05/13 03:40:03;;;;;;;11.67;8.40;;;;;;;14.82;89.37;101890.44;5264923;28;20468;-80
2023/05/13 03:42:56;;;;;;;;;;;;;;;15.68;86.23;101922.03;5298505;28;20089;-81
2023/05/13 03:45:31;;;;;;;11.43;7.03;;;;;;;14.84;88.37;101909.63;5288797;28;19921;-80
2023/05/13 03:48:10;;;;;;;12.43;7.23;;;;;;;14.80;93.41;101910.72;5299890;28;20031;-80
2023/05/13 03:54:19;;;;;;;7.67;6.87;;;;;;;14.28;95.66;101867.16;5265064;28;20077;-80
2023/05/13 03:57:25;;;;;;;8.93;6.87;;;;;;;14.57;91.36;101886.59;5284515;28;20069;-80
2023/05/13 04:00:17;;;;;;;6.63;6.03;;;;;;;14.23;92.81;101868.38;5301422;28;20034;-79
2023/05/13 04:03:28;;;;;;;9.97;7.07;;;;;;;14.91;91.66;101939.94;5289056;28;20079;-79
2023/05/13 04:09:30;;;;;;;8.02;6.68;;;;;;;13.87;94.23;101862.53;5280891;28;20120;-79
2023/05/13 04:12:46;;;;;;;9.83;7.63;;;;;;;14.63;93.94;101931.03;5293016;28;20451;-79
2023/05/13 04:19:01;;;;;;;8.50;7.20;;;;;;;14.02;96.20;101898.53;5193268;28;20473;-78
2023/05/13 04:21:32;;;;;;;8.83;7.93;;;;;;;14.36;92.37;101886.94;5234394;28;20086;-79
2023/05/13 04:24:05;;;;;;;9.30;8.07;;;;;;;14.18;93.72;101900.25;5288187;28;20439;-79
2023/05/13 04:26:37;;;;;;;8.10;7.30;;;;;;;14.37;93.10;101912.34;5297072;28;20129;-79
2023/05/13 04:29:08;;;;;;;11.40;8.50;;;;;;;14.14;94.51;101907.50;5297906;28;20169;-80
2023/05/13 04:31:40;;;;;;;12.90;9.13;;;;;;;14.33;93.98;101929.31;5297599;28;20530;-80
2023/05/13 04:34:11;;;;;;;10.23;8.40;;;;;;;14.35;94.48;101932.66;5297822;28;20099;-80
2023/05/13 04:36:43;;;;;;;12.20;9.10;;;;;;;14.17;94.04;101917.03;5298814;28;20036;-80
2023/05/13 04:39:14;;;;;;;12.87;8.53;;;;;;;14.25;93.39;101909.50;5300417;28;20028;-80
2023/05/13 04:41:46;;;;;;;13.50;8.37;;;;;;;14.17;92.93;101911.75;5297799;28;20024;-80
2023/05/13 04:44:17;;;;;;;11.27;7.77;;;;;;;14.32;93.39;101946.03;5300378;28;20024;-78
2023/05/13 04:46:48;;;;;;;11.23;8.70;;;;;;;13.94;94.60;101895.50;5300043;28;20032;-78
2023/05/13 04:49:23;;;;;;;10.53;8.17;;;;;;;14.46;92.48;101929.41;5299956;28;20027;-79
2023/05/13 04:51:59;;;;;;;9.27;8.37;;;;;;;14.17;93.53;101910.91;5297729;28;20032;-79
2023/05/13 04:54:34;;;;;;;11.00;8.00;;;;;;;13.90;93.50;101878.16;5299079;28;20020;-79
2023/05/13 04:57:13;;;;;;;13.65;8.40;;;;;;;14.35;93.33;101924.75;5300204;28;20460;-79
2023/05/13 04:59:45;;;;;;;9.30;8.37;;;;;;;14.31;92.34;101915.34;5298085;28;20024;-79
2023/05/13 05:02:19;;;;;;;11.97;8.17;;;;;;;14.40;92.14;101933.25;5298845;28;20031;-79
2023/05/13 05:04:55;;;;;;;10.25;8.57;;;;;;;14.51;91.89;101933.47;5298247;28;20054;-79
2023/05/13 05:07:43;;;;;;;;;;;;;;;;;;;;;
2023/05/13 05:10:39;;;;;;;10.53;8.63;;;;;;;14.20;92.18;101890.50;5297997;28;20370;-79
2023/05/13 05:13:38;;;;;;;9.83;8.87;;;;;;;14.80;91.57;101960.84;5292866;28;20032;-79
2023/05/13 05:16:10;;;;;;;9.77;8.10;;;;;;;14.26;94.11;101927.00;5296182;28;20414;-79
2023/05/13 05:18:42;;;;;;;12.57;8.30;;;;;;;14.25;96.81;101908.66;5297805;28;20024;-79
2023/05/13 05:21:13;;;;;;;10.50;8.00;;;;;;;14.30;92.52;101911.00;5300156;28;20093;-79
2023/05/13 05:23:45;;;;;;;10.00;8.37;;;;;;;14.43;93.59;101943.63;5297564;28;20024;-79
2023/05/13 05:26:16;;;;;;;8.50;7.60;;;;;;;14.43;93.34;101933.09;5298430;28;20030;-78
2023/05/13 05:28:47;;;;;;;11.30;8.33;;;;;;;14.40;95.14;101928.84;5297907;28;20028;-79
2023/05/13 05:31:19;;;;;;;11.70;8.33;;;;;;;14.54;93.19;101955.31;5297763;28;20020;-79
2023/05/13 05:33:50;;;;;;;12.77;7.70;;;;;;;14.51;92.38;101945.81;5298982;28;20020;-79
2023/05/13 05:36:22;;;;;;;10.60;8.53;;;;;;;14.47;90.80;101947.75;5299380;28;20467;-79
2023/05/13 05:38:53;;;;;;;10.80;8.23;;;;;;;14.49;91.60;101940.63;5292394;28;20028;-79
2023/05/13 05:41:24;;;;;;;16.47;9.63;;;;;;;14.27;93.46;101938.41;5276214;28;20090;-79
2023/05/13 05:43:56;;;;;;;14.97;9.07;;;;;;;14.47;92.04;101933.75;5275780;28;20021;-79
2023/05/13 05:46:29;;;;;;;10.57;8.83;;;;;;;14.40;93.14;101935.88;5276948;28;20028;-79
2023/05/13 05:49:02;;;;;;;10.68;8.60;;;;;;;14.64;94.54;101962.56;5277223;28;20020;-79
2023/05/13 05:51:33;;;;;;;12.00;9.20;;;;;;;14.51;92.65;101945.81;5275284;28;20024;-79
2023/05/13 05:54:05;;;;;;;11.93;8.93;;;;;;;14.75;93.20;101961.94;5276249;28;20364;-80
2023/05/13 05:56:36;;;;;;;14.57;10.07;;;;;;;14.87;91.71;101976.22;5277430;28;20024;-79
2023/05/13 05:59:08;;;;;;;13.37;9.80;;;;;;;14.92;93.54;101988.28;5278218;28;20085;-78
2023/05/13 06:01:39;;;;;;;10.33;9.07;;;;;;;14.76;94.41;101961.03;5277601;28;20070;-78
2023/05/13 06:04:11;;;;;;;13.30;9.47;;;;;;;14.79;93.60;101953.84;5277638;28;20024;-78
2023/05/13 06:06:42;;;;;;;11.07;9.97;;;;;;;15.06;92.81;101988.28;5277756;28;20032;-78
2023/05/13 06:09:13;;;;;;;14.03;10.07;;;;;;;15.00;92.76;101984.25;5276939;28;20472;-78
2023/05/13 06:11:55;;;;;;;10.53;9.30;;;;;;;14.94;91.87;101946.84;5280302;28;20028;-78
2023/05/13 06:14:27;;;;;;;12.70;9.50;;;;;;;14.88;94.91;101977.06;5280266;28;20052;-79
2023/05/13 06:17:01;;;;;;;11.37;10.17;;;;;;;15.22;93.13;102003.19;5281807;28;20074;-80
2023/05/13 06:19:32;;;;;;;13.98;11.30;;;;;;;15.08;93.10;101990.84;5282010;28;20032;-79
2023/05/13 06:22:04;;;;;;;13.07;10.83;;;;;;;15.04;92.13;101973.50;5300043;28;20047;-79
2023/05/13 06:24:35;;;;;;;14.33;10.47;;;;;;;15.08;91.40;101981.13;5301289;28;20024;-79
2023/05/13 06:27:07;;;;;;;18.77;12.27;;;;;;;15.10;94.73;101981.03;5299104;28;20012;-79
2023/05/13 06:29:39;;;;;;;13.00;11.33;;;;;;;15.21;93.13;101991.78;5300938;28;20028;-79
2023/05/13 06:32:10;;;;;;;14.10;10.30;;;;;;;15.23;95.28;101979.34;5301441;28;20111;-79
2023/05/13 06:34:45;;;;;;;12.07;10.27;;;;;;;15.31;92.11;101970.94;5302152;28;20095;-79
2023/05/13 06:37:16;;;;;;;14.70;10.87;;;;;;;15.46;99.91;101997.34;5302565;28;20028;-78
2023/05/13 06:39:47;;;;;;;12.47;11.00;;;;;;;15.41;91.95;101968.56;5296750;28;20043;-78
2023/05/13 06:42:19;;;;;;;12.80;11.40;;;;;;;15.44;93.07;101968.41;5283459;28;20073;-78
2023/05/13 06:44:50;;;;;;;12.77;11.07;;;;;;;15.72;91.20;102015.97;5281993;28;20108;-78
2023/05/13 06:47:22;;;;;;;12.07;10.80;;;;;;;15.55;92.37;101977.44;5302635;28;20024;-79
2023/05/13 06:49:53;;;;;;;14.93;10.43;;;;;;;15.78;91.66;101989.16;5290617;28;20047;-78
2023/05/13 06:52:24;;;;;;;11.43;10.33;;;;;;;15.90;90.76;101978.78;5298238;28;20103;-79
2023/05/13 06:54:58;;;;;;;14.00;10.37;;;;;;;16.20;88.77;101999.72;5282430;28;20551;-80
2023/05/13 06:57:29;;;;;;;12.40;10.10;;;;;;;16.04;88.12;101967.34;5291563;28;20031;-78
2023/05/13 07:00:03;;;;;;;12.37;10.07;;;;;;;16.33;88.01;101981.28;5288720;28;20032;-78
2023/05/13 07:02:34;;;;;;;12.20;10.23;;;;;;;16.22;87.64;101973.19;5289043;28;20440;-78
2023/05/13 07:05:06;;;;;;;14.03;10.10;;;;;;;16.18;86.81;101988.41;5292099;28;20056;-78
2023/05/13 07:07:37;;;;;;;18.27;9.13;;;;;;;16.47;85.50;101986.56;5280872;28;20024;-78
2023/05/13 07:10:09;;;;;;;11.00;9.87;;;;;;;16.70;84.64;102006.19;5280060;28;20024;-78
2023/05/13 07:12:41;;;;;;;12.67;9.90;;;;;;;16.46;88.16;101983.06;5280075;28;20096;-79
2023/05/13 07:15:12;;;;;;;14.07;10.57;;;;;;;16.46;86.46;101977.78;5280770;28;20045;-79
2023/05/13 07:17:43;;;;;;;13.30;10.07;;;;;;;16.50;85.05;101978.44;5293846;28;20053;-79
2023/05/13 07:20:15;;;;;;;13.87;10.63;;;;;;;16.68;84.20;102014.22;5302016;28;20020;-79
2023/05/13 07:22:58;;;;;;;13.03;10.60;;;;;;;16.81;88.37;101993.06;5299350;28;20020;-78
2023/05/13 07:25:30;;;;;;;12.63;11.30;;;;;;;16.74;84.66;101991.78;5300499;28;20043;-78
2023/05/13 07:28:01;;;;;;;11.83;10.53;;;;;;;17.42;81.53;101996.88;5301178;28;20512;-78
2023/05/13 07:30:33;;;;;;;14.90;9.87;;;;;;;17.55;81.80;102001.31;5301467;28;20363;-78
2023/05/13 07:33:04;;;;;;;17.50;11.07;;;;;;;17.53;82.78;101992.59;5300268;28;20558;-77
2023/05/13 07:35:36;;;;;;;11.20;9.97;;;;;;;18.32;80.89;101991.38;5301172;28;20012;-78
2023/05/13 07:38:09;;;;;;;11.53;9.47;;;;;;;19.09;75.12;102012.16;5301657;28;20344;-78
2023/05/13 07:40:41;;;;;;;12.77;9.47;;;;;;;19.71;75.17;101987.84;5299823;28;20032;-78
2023/05/13 07:43:12;;;;;;;11.57;9.10;;;;;;;20.58;69.54;101997.69;5300147;28;20016;-78
2023/05/13 07:45:44;;;;;;;10.87;8.47;;;;;;;21.47;66.48;101992.78;5299254;28;20035;-76
2023/05/13 07:48:16;;;;;;;9.80;7.50;;;;;;;21.64;61.96;101993.94;5301194;28;20460;-76
2023/05/13 07:51:34;;;;;;;10.73;8.75;;;;;;;22.40;62.88;101954.22;5295108;28;20039;-77
2023/05/13 07:54:57;;;;;;;;;;;;;;;;;;;;;
2023/05/13 07:57:28;;;;;;;11.13;7.28;;;;;;;23.58;52.96;101984.13;5294271;28;20489;-78
2023/05/13 08:00:00;;;;;;;11.07;7.65;;;;;;;24.03;51.71;101997.63;5299850;28;20020;-77
2023/05/13 08:02:33;;;;;;;9.13;7.28;;;;;;;24.71;50.08;102008.69;5278518;28;20025;-77
2023/05/13 08:05:05;;;;;;;9.68;7.57;;;;;;;24.69;48.45;101988.41;5279759;28;20532;-78
2023/05/13 08:08:30;;;;;;;13.75;6.45;;;;;;;25.02;52.77;101964.50;5279488;28;20107;-77
2023/05/13 08:14:29;;;;;;;8.45;7.00;;;;;;;25.54;45.42;101970.69;5279426;28;20049;-78
2023/05/13 08:17:06;;;;;;;12.38;6.82;;;;;;;26.34;45.74;102003.31;5279562;28;20028;-78
2023/05/13 08:19:40;;;;;;;11.02;6.40;;;;;;;26.53;44.14;102006.63;5279422;28;20442;-78
2023/05/13 08:22:12;;;;;;;9.27;6.65;;;;;;;26.93;43.04;102011.25;5279363;28;20051;-78
2023/05/13 08:24:43;;;;;;;10.82;6.43;;;;;;;27.05;42.40;102017.94;5278723;28;20028;-78
2023/05/13 08:27:48;;;;;;;9.43;6.15;;;;;;;27.75;42.67;101982.25;5278103;28;20064;-76
2023/05/13 08:30:19;;;;;;;9.52;6.10;;;;;;;27.62;38.02;102000.84;5276945;28;20035;-77
2023/05/13 08:32:51;;;;;;;7.90;5.68;;;;;;;27.42;38.22;101988.69;5277409;28;20029;-76
2023/05/13 08:35:22;;;;;;;6.53;5.72;;;;;;;27.36;38.65;102004.69;5276804;28;20020;-78
2023/05/13 08:37:54;;;;;;;8.75;5.75;;;;;;;27.85;39.05;102021.56;5277689;28;20089;-77
2023/05/13 08:40:25;;;;;;;10.68;5.90;;;;;;;28.37;37.90;102013.75;5276924;28;20025;-77
2023/05/13 08:43:02;;;;;;;10.85;6.28;;;;;;;28.80;37.03;101999.66;5277478;28;20077;-82
2023/05/13 08:45:49;;;;;;;7.88;6.18;;;;;;;29.50;38.90;102005.72;5279533;28;20049;-81
2023/05/13 08:51:24;;;;;;;9.50;6.15;;;;;;;28.69;35.17;101971.34;5243596;28;20119;-81
2023/05/13 08:53:56;;;;;;;7.22;6.20;;;;;;;29.35;35.54;101995.78;5286293;28;20020;-80
2023/05/13 08:56:28;;;;;;;8.82;6.75;;;;;;;29.37;35.38;102019.88;5299768;28;20028;-78
2023/05/13 08:58:59;;;;;;;17.58;6.85;;;;;;;28.95;35.96;101996.97;5291256;28;20496;-79
2023/05/13 09:01:35;;;;;;;9.70;6.80;;;;;;;29.75;34.77;101994.56;5285054;28;20099;-83
2023/05/13 09:04:09;;;;;;;10.20;6.13;;;;;;;29.93;35.21;102018.41;5292023;28;20025;-79
2023/05/13 09:06:40;;;;;;;7.97;5.82;;;;;;;30.53;33.86;102006.41;5277953;28;20024;-79
2023/05/13 09:09:12;;;;;;;6.35;5.75;;;;;;;30.82;33.43;102014.50;5282868;28;20029;-79
2023/05/13 09:11:46;;;;;;;7.07;5.47;;;;;;;31.61;32.78;102006.88;5283110;28;20263;-79
2023/05/13 09:14:18;;;;;;;10.18;6.13;;;;;;;31.74;31.09;102011.47;5298332;28;20036;-78
2023/05/13 09:16:49;;;;;;;7.57;5.72;;;;;;;31.28;31.68;102013.00;5295532;28;20562;-79
2023/05/13 09:19:23;;;;;;;7.50;6.07;;;;;;;32.27;31.21;102019.84;5289922;28;20111;-77
2023/05/13 09:21:55;;;;;;;9.80;7.15;;;;;;;32.33;30.09;102021.69;5289551;28;20099;-77
2023/05/13 09:24:27;;;;;;;13.48;5.68;;;;;;;32.76;29.63;102007.88;5275560;28;20073;-78
2023/05/13 09:26:58;;;;;;;14.80;7.07;;;;;;;32.51;29.15;102022.91;5291055;28;20391;-78
2023/05/13 09:29:29;;;;;;;12.38;5.88;;;;;;;32.78;28.98;102013.91;5278872;28;20030;-78
2023/05/13 09:32:08;;;;;;;7.75;6.05;;;;;;;33.46;29.95;102009.00;5287349;28;20042;-78
2023/05/13 09:34:46;;;;;;;6.82;6.13;;;;;;;33.63;29.37;102008.47;5287643;28;20468;-78
2023/05/13 09:37:18;;;;;;;7.72;5.43;;;;;;;33.67;28.14;102002.41;5288001;28;20476;-77
2023/05/13 09:39:51;;;;;;;7.80;6.10;;;;;;;33.66;28.51;101998.03;5282795;28;20073;-77
2023/05/13 09:42:22;;;;;;;;;;;;;;;35.79;29.46;102001.66;5286902;28;20094;-78
2023/05/13 09:44:54;;;;;;;9.77;6.35;;;;;;;33.54;27.78;101997.03;5287348;28;20355;-78
2023/05/13 09:47:25;;;;;;;14.20;6.45;;;;;;;33.53;27.97;101992.69;5287859;28;20024;-78
2023/05/13 09:49:56;;;;;;;8.38;5.57;;;;;;;34.25;27.05;101993.34;5287858;28;20020;-78
2023/05/13 09:52:30;;;;;;;6.82;6.07;;;;;;;34.75;26.76;101994.31;5287480;28;20093;-78
2023/05/13 09:55:05;;;;;;;8.85;5.80;;;;;;;34.48;27.82;101995.41;5286958;28;20063;-78
2023/05/13 09:57:39;;;;;;;11.02;6.20;;;;;;;34.73;26.13;101990.97;5284446;28;20029;-78
2023/05/13 10:00:11;;;;;;;6.45;5.50;;;;;;;34.82;26.96;101992.34;5303563;28;20136;-79
2023/05/13 10:02:42;;;;;;;8.52;5.72;;;;;;;35.19;26.15;101980.50;5284144;28;20111;-76
2023/05/13 10:05:14;;;;;;;9.77;5.63;;;;;;;34.99;25.89;101991.69;5288241;28;21308;-77
2023/05/13 10:07:46;;;;;;;11.35;6.20;;;;;;;35.36;26.50;101960.84;5287025;28;20107;-77
2023/05/13 10:10:18;;;;;;;9.93;5.82;;;;;;;35.40;25.94;101964.72;5284453;28;20063;-78
2023/05/13 10:12:50;;;;;;;7.53;5.32;;;;;;;35.25;25.59;101962.47;5285491;28;20337;-78
2023/05/13 10:15:22;;;;;;;12.98;6.28;;;;;;;35.54;25.72;101970.78;5287816;28;20024;-78
2023/05/13 10:17:53;;;;;;;8.70;5.07;;;;;;;34.80;25.98;101966.41;5287437;28;20047;-78
2023/05/13 10:20:26;;;;;;;9.02;4.53;;;;;;;35.89;25.32;101976.56;5285259;28;20023;-77
2023/05/13 10:22:57;;;;;;;6.38;4.53;;;;;;;35.81;25.80;101964.09;5286844;28;20097;-77
2023/05/13 10:25:29;;;;;;;6.37;4.53;;;;;;;36.25;24.73;101951.97;5286486;28;20091;-78
2023/05/13 10:28:02;;;;;;;6.30;4.13;;;;;;;36.05;24.65;101975.84;5285453;28;20047;-78
2023/05/13 10:30:35;;;;;;;8.00;4.63;;;;;;;35.62;25.38;101972.34;5285009;28;20024;-78
2023/05/13 10:33:07;;;;;;;7.60;4.68;;;;;;;35.81;23.88;101942.31;5284382;28;20163;-78
2023/05/13 10:35:44;;;;;;;9.52;4.30;;;;;;;36.14;24.64;101953.66;5285379;28;20040;-78
2023/05/13 10:38:21;;;;;;;6.82;4.55;;;;;;;36.38;24.22;101975.44;5285346;28;20058;-77
2023/05/13 10:40:52;;;;;;;9.13;4.72;;;;;;;35.80;23.85;101971.44;5285887;28;20028;-77
2023/05/13 10:43:28;;;;;;;4.30;3.90;;;;;;;36.79;23.71;101975.50;5286547;28;20020;-77
2023/05/13 10:46:05;;;;;;;9.48;4.22;;;;;;;36.66;24.16;101974.66;5282014;28;20077;-78
2023/05/13 10:48:41;;;;;;;8.10;3.97;;;;;;;36.57;23.18;101978.84;5285101;28;20042;-78
2023/05/13 10:51:15;;;;;;;9.07;5.28;;;;;;;35.80;23.51;101948.84;5283543;28;20020;-78
2023/05/13 10:53:48;;;;;;;11.43;4.63;;;;;;;35.71;22.62;101962.75;5286948;28;20853;-77
2023/05/13 10:56:23;;;;;;;10.10;3.95;;;;;;;35.16;22.82;101937.44;5286188;28;20028;-78
2023/05/13 10:59:10;;;;;;;6.72;3.13;;;;;;;35.86;24.49;101934.25;5290208;28;20051;-79
2023/05/13 11:01:42;;;;;;;8.85;3.30;;;;;;;35.26;23.39;101931.44;5288555;28;20744;-81
2023/05/13 11:04:20;;;;;;;5.23;3.47;;;;;;;35.81;23.75;101915.91;5290409;28;20033;-79
2023/05/13 11:07:12;;;;;;;4.78;3.80;;;;;;;35.41;22.99;101965.56;5288438;28;20036;-79
2023/05/13 11:09:49;;;;;;;7.35;3.78;;;;;;;35.36;23.93;101941.78;5299972;28;20094;-79
2023/05/13 11:12:21;;;;;;;5.82;3.22;;;;;;;34.84;23.43;101933.06;5291440;28;20024;-79
2023/05/13 11:14:55;;;;;;;5.93;4.07;;;;;;;35.13;22.75;101916.13;5288369;28;20105;-80
2023/05/13 11:17:35;;;;;;;5.80;2.60;;;;;;;34.93;24.40;101925.41;5290383;28;20036;-81
2023/05/13 11:20:08;;;;;;;11.15;3.03;;;;;;;34.44;23.25;101907.19;5289253;28;20020;-79
2023/05/13 11:22:40;;;;;;;7.97;3.03;;;;;;;34.30;24.15;101897.56;5288586;28;20676;-78
2023/05/13 11:25:11;;;;;;;6.38;3.03;;;;;;;33.78;25.58;101894.09;5287998;28;20024;-79
2023/05/13 11:27:43;;;;;;;6.57;2.70;;;;;;;34.24;23.67;101904.72;5287719;28;20522;-80
2023/05/13 11:30:23;;;;;;;8.43;2.88;;;;;;;33.68;22.87;101883.75;5291540;28;20088;-80
2023/05/13 11:32:57;;;;;;;9.25;3.53;;;;;;;33.53;23.19;101898.47;5290526;28;20032;-81
2023/05/13 11:35:30;;;;;;;9.27;3.15;;;;;;;33.79;21.97;101912.06;5291074;28;20063;-78
2023/05/13 11:38:02;;;;;;;5.32;2.72;;;;;;;33.39;24.65;101937.63;5289111;28;20039;-79
2023/05/13 11:40:35;;;;;;;5.90;3.13;;;;;;;33.16;24.49;101884.78;5289585;28;20043;-80
2023/05/13 11:43:08;;;;;;;7.85;3.10;;;;;;;32.59;24.95;101880.88;5288263;28;20097;-80
2023/05/13 11:45:39;;;;;;;9.73;2.78;;;;;;;33.31;21.79;101909.72;5289556;28;20016;-80
2023/05/13 11:48:22;;;;;;;6.15;2.55;;;;;;;33.55;23.84;101918.06;5289961;28;20034;-80
2023/05/13 11:50:56;;;;;;;7.00;2.50;;;;;;;32.93;23.95;101894.28;5288959;28;20050;-80
2023/05/13 11:53:27;;;;;;;15.43;2.50;;;;;;;33.07;21.41;101897.75;5288645;28;20479;-81
2023/05/13 11:56:10;;;;;;;7.05;2.05;;;;;;;33.16;23.65;101901.06;5287621;28;20081;-81
2023/05/13 11:58:41;;;;;;;5.70;2.70;;;;;;;32.45;23.20;101883.63;5288593;28;20057;-80
2023/05/13 12:01:13;;;;;;;6.20;2.20;;;;;;;32.58;21.98;101926.16;5288415;28;20135;-81
2023/05/13 12:03:45;;;;;;;9.47;2.80;;;;;;;32.69;21.30;101864.97;5287166;28;20055;-81
2023/05/13 12:06:17;;;;;;;6.28;2.15;;;;;;;32.15;23.46;101880.63;5289609;28;20111;-81
2023/05/13 12:08:48;;;;;;;6.03;2.15;;;;;;;32.29;22.48;101890.34;5288580;28;20496;-81
2023/05/13 12:11:20;;;;;;;7.00;2.40;;;;;;;32.63;21.86;101868.56;5288378;28;20059;-81
2023/05/13 12:13:51;;;;;;;4.03;2.45;;;;;;;32.18;21.87;101877.47;5287640;28;20086;-80
2023/05/13 12:16:23;;;;;;;9.02;2.42;;;;;;;32.09;22.36;101871.47;5285669;28;20468;-80
2023/05/13 12:18:59;;;;;;;9.95;2.67;;;;;;;31.81;23.85;101889.63;5287141;28;20020;-80
2023/05/13 12:21:31;;;;;;;5.72;2.95;;;;;;;31.23;25.27;101872.09;5288491;28;20047;-80
2023/05/13 12:24:24;;;;;;;6.53;2.08;;;;;;;32.12;23.23;101879.16;5284268;28;20740;-81
2023/05/13 12:27:04;;;;;;;6.82;2.70;;;;;;;31.81;23.36;101859.81;5287085;28;20052;-81
2023/05/13 12:29:43;;;;;;;9.15;2.50;;;;;;;31.63;23.10;101868.59;5289077;28;20090;-81
2023/05/13 12:32:15;;;;;;;5.38;2.20;;;;;;;31.53;22.51;101860.91;5289808;28;20036;-82
2023/05/13 12:34:49;;;;;;;6.25;2.10;;;;;;;31.55;22.88;101893.16;5288394;28;20040;-81
2023/05/13 12:37:23;;;;;;;;;;;;;;;33.27;22.84;101903.03;5288154;28;20102;-81